createdAt,value
2018-07-11T00:02:05.455Z,14.10
2018-07-11T00:04:33.858Z,14.10
2018-07-11T00:07:02.147Z,14.10
2018-07-11T00:09:30.446Z,14.10
2018-07-11T00:11:58.737Z,14.10
2018-07-11T00:14:27.014Z,14.10
2018-07-11T00:17:00.768Z,14.10
2018-07-11T00:19:29.076Z,14.10
2018-07-11T00:21:58.021Z,14.10
2018-07-11T00:24:28.244Z,14.10
2018-07-11T00:26:56.581Z,14.10
2018-07-11T00:29:25.028Z,14.10
2018-07-11T00:31:53.296Z,14.20
2018-07-11T00:34:21.595Z,14.20
2018-07-11T00:36:49.853Z,14.20
2018-07-11T00:39:18.183Z,14.20
2018-07-11T00:41:46.439Z,14.30
2018-07-11T00:44:14.747Z,14.30
2018-07-11T00:46:43.020Z,14.20
2018-07-11T00:49:11.346Z,14.20
2018-07-11T00:51:39.732Z,14.30
2018-07-11T00:54:08.003Z,14.30
2018-07-11T00:56:36.306Z,14.40
2018-07-11T00:59:09.427Z,14.40
2018-07-11T01:01:40.661Z,14.40
2018-07-11T01:04:08.942Z,14.40
2018-07-11T01:06:37.226Z,14.40
2018-07-11T01:09:05.502Z,14.40
2018-07-11T01:11:35.352Z,14.30
2018-07-11T01:14:03.640Z,14.30
2018-07-11T01:16:32.811Z,14.30
2018-07-11T01:19:02.474Z,14.30
2018-07-11T01:21:31.488Z,14.30
2018-07-11T01:26:29.795Z,14.30
2018-07-11T01:28:58.080Z,14.30
2018-07-11T01:31:26.558Z,14.20
2018-07-11T01:33:55.473Z,14.20
2018-07-11T01:36:24.092Z,14.20
2018-07-11T01:38:52.411Z,14.10
2018-07-11T01:41:20.771Z,14.20
2018-07-11T01:43:49.127Z,14.20
2018-07-11T01:46:17.473Z,14.20
2018-07-11T01:48:46.235Z,14.20
2018-07-11T01:51:14.559Z,14.20
2018-07-11T01:53:42.849Z,14.20
2018-07-11T01:56:11.262Z,14.20
2018-07-11T01:58:40.516Z,14.20
2018-07-11T02:01:08.835Z,14.20
2018-07-11T02:03:37.110Z,14.30
2018-07-11T02:06:05.419Z,14.30
2018-07-11T02:08:33.723Z,14.30
2018-07-11T02:11:02.066Z,14.40
2018-07-11T02:13:30.347Z,14.40
2018-07-11T02:18:28.447Z,14.40
2018-07-11T02:20:57.067Z,14.40
2018-07-11T02:23:33.009Z,14.40
2018-07-11T02:26:01.338Z,14.40
2018-07-11T02:28:30.326Z,14.40
2018-07-11T02:30:58.663Z,14.40
2018-07-11T02:33:26.974Z,14.40
2018-07-11T02:35:55.287Z,14.40
2018-07-11T02:38:23.590Z,14.50
2018-07-11T02:40:51.891Z,14.40
2018-07-11T02:43:20.167Z,14.30
2018-07-11T02:48:16.529Z,14.20
2018-07-11T02:50:44.861Z,14.30
2018-07-11T02:53:18.922Z,14.20
2018-07-11T02:55:47.767Z,14.20
2018-07-11T02:58:16.065Z,14.30
2018-07-11T03:00:44.394Z,14.20
2018-07-11T03:03:12.668Z,14.20
2018-07-11T03:05:41.083Z,14.20
2018-07-11T03:08:09.460Z,14.20
2018-07-11T03:10:37.842Z,14.10
2018-07-11T03:13:06.879Z,14.00
2018-07-11T03:15:37.278Z,14.00
2018-07-11T03:18:05.847Z,14.00
2018-07-11T03:20:34.179Z,13.90
2018-07-11T03:23:02.500Z,13.90
2018-07-11T03:25:31.100Z,13.90
2018-07-11T03:27:59.401Z,14.00
2018-07-11T03:30:27.679Z,14.00
2018-07-11T03:32:55.976Z,14.00
2018-07-11T03:35:24.258Z,14.10
2018-07-11T03:37:52.695Z,14.10
2018-07-11T03:40:20.964Z,14.10
2018-07-11T03:42:49.255Z,14.20
2018-07-11T03:45:17.534Z,14.20
2018-07-11T03:47:45.830Z,14.20
2018-07-11T03:50:14.120Z,14.30
2018-07-11T03:52:42.434Z,14.30
2018-07-11T03:55:10.719Z,14.30
2018-07-11T03:57:39.082Z,14.30
2018-07-11T04:00:07.380Z,14.30
2018-07-11T04:02:35.695Z,14.30
2018-07-11T04:05:04.003Z,14.30
2018-07-11T04:07:32.376Z,14.30
2018-07-11T04:10:00.708Z,14.30
2018-07-11T04:12:29.050Z,14.30
2018-07-11T04:14:57.324Z,14.30
2018-07-11T04:17:25.626Z,14.40
2018-07-11T04:19:54.144Z,14.40
2018-07-11T04:22:22.480Z,14.50
2018-07-11T04:24:50.783Z,14.50
2018-07-11T04:27:19.101Z,14.50
2018-07-11T04:29:47.391Z,14.50
2018-07-11T04:32:15.698Z,14.50
2018-07-11T04:34:44.050Z,14.60
2018-07-11T04:37:12.286Z,14.60
2018-07-11T04:39:40.569Z,14.70
2018-07-11T04:42:08.908Z,14.70
2018-07-11T04:44:37.209Z,14.80
2018-07-11T04:47:05.520Z,14.90
2018-07-11T04:49:33.814Z,15.00
2018-07-11T04:52:02.431Z,15.00
2018-07-11T04:54:30.711Z,15.00
2018-07-11T04:56:59.062Z,15.00
2018-07-11T04:59:27.343Z,15.00
2018-07-11T05:01:55.631Z,15.00
2018-07-11T05:04:23.894Z,15.00
2018-07-11T05:09:20.218Z,15.00
2018-07-11T05:11:48.521Z,15.10
2018-07-11T05:14:16.832Z,15.10
2018-07-11T05:16:45.108Z,15.20
2018-07-11T05:19:13.759Z,15.20
2018-07-11T05:21:42.031Z,15.20
2018-07-11T05:24:10.325Z,15.20
2018-07-11T05:26:38.625Z,15.20
2018-07-11T05:29:06.913Z,15.10
2018-07-11T05:31:35.199Z,15.10
2018-07-11T05:34:03.482Z,15.00
2018-07-11T05:36:31.833Z,14.90
2018-07-11T05:39:00.447Z,14.90
2018-07-11T05:41:29.113Z,14.90
2018-07-11T05:43:57.933Z,15.00
2018-07-11T05:46:26.198Z,15.00
2018-07-11T05:48:54.505Z,15.00
2018-07-11T05:51:22.813Z,15.00
2018-07-11T05:53:51.113Z,15.10
2018-07-11T05:56:19.407Z,15.10
2018-07-11T05:58:47.715Z,15.10
2018-07-11T06:01:15.994Z,15.10
2018-07-11T06:03:44.299Z,15.20
2018-07-11T06:06:12.602Z,15.20
2018-07-11T06:08:40.915Z,15.30
2018-07-11T06:11:18.291Z,15.30
2018-07-11T06:13:46.696Z,15.30
2018-07-11T06:16:14.988Z,15.30
2018-07-11T06:18:43.385Z,15.40
2018-07-11T06:21:11.699Z,15.40
2018-07-11T06:23:40.081Z,15.50
2018-07-11T06:26:08.369Z,15.50
2018-07-11T06:31:05.130Z,15.60
2018-07-11T06:33:33.736Z,15.70
2018-07-11T06:36:02.005Z,15.80
2018-07-11T06:38:30.305Z,15.90
2018-07-11T06:40:58.588Z,16.00
2018-07-11T06:43:26.908Z,16.00
2018-07-11T06:45:55.178Z,16.00
2018-07-11T06:48:23.481Z,16.10
2018-07-11T06:53:19.825Z,16.20
2018-07-11T06:55:48.123Z,16.30
2018-07-11T06:58:16.438Z,16.30
2018-07-11T07:03:12.791Z,16.30
2018-07-11T07:05:41.122Z,16.20
2018-07-11T07:08:09.446Z,16.10
2018-07-11T07:10:37.760Z,16.00
2018-07-11T07:13:06.565Z,16.00
2018-07-11T07:15:34.888Z,16.10
2018-07-11T07:18:03.149Z,16.20
2018-07-11T07:20:31.456Z,16.30
2018-07-11T07:22:59.739Z,16.40
2018-07-11T07:25:28.043Z,16.50
2018-07-11T07:27:56.462Z,16.60
2018-07-11T07:30:24.751Z,16.60
2018-07-11T07:32:53.044Z,16.60
2018-07-11T07:35:21.361Z,16.60
2018-07-11T07:37:49.645Z,16.50
2018-07-11T07:40:17.941Z,16.40
2018-07-11T07:42:46.231Z,16.30
2018-07-11T07:45:14.618Z,16.30
2018-07-11T07:47:46.706Z,16.30
2018-07-11T07:52:44.143Z,16.20
2018-07-11T07:55:12.638Z,16.20
2018-07-11T07:57:41.674Z,16.20
2018-07-11T08:00:09.978Z,16.20
2018-07-11T08:02:38.359Z,16.20
2018-07-11T08:05:08.530Z,16.10
2018-07-11T08:07:37.787Z,16.10
2018-07-11T08:10:06.829Z,16.10
2018-07-11T08:12:35.335Z,16.20
2018-07-11T08:15:03.662Z,16.20
2018-07-11T08:17:31.955Z,16.20
2018-07-11T08:20:00.255Z,16.20
2018-07-11T08:23:12.405Z,16.30
2018-07-11T08:25:52.584Z,16.50
2018-07-11T08:30:45.890Z,16.60
2018-07-11T08:35:29.230Z,16.80
2018-07-11T08:38:18.619Z,17.40
2018-07-11T08:41:02.283Z,18.00
2018-07-11T08:43:38.343Z,18.20
2018-07-11T08:46:45.364Z,18.30
2018-07-11T08:53:18.335Z,18.00
2018-07-11T08:58:05.718Z,17.90
2018-07-11T09:00:54.425Z,17.80
2018-07-11T09:06:36.318Z,17.80
2018-07-11T09:12:23.040Z,17.80
2018-07-11T09:15:04.058Z,18.00
2018-07-11T09:17:48.143Z,17.80
2018-07-11T09:20:27.210Z,17.70
2018-07-11T09:25:09.247Z,17.70
2018-07-11T09:27:37.944Z,17.70
2018-07-11T09:30:06.304Z,17.80
2018-07-11T09:32:34.750Z,17.90
2018-07-11T09:35:03.132Z,17.90
2018-07-11T09:37:31.538Z,18.00
2018-07-11T09:39:59.896Z,17.90
2018-07-11T09:42:28.249Z,18.00
2018-07-11T09:44:56.576Z,18.00
2018-07-11T09:47:26.990Z,18.20
2018-07-11T09:49:55.365Z,18.40
2018-07-11T09:52:23.713Z,18.60
2018-07-11T09:54:52.536Z,18.70
2018-07-11T09:57:20.994Z,18.80
2018-07-11T09:59:49.630Z,18.90
2018-07-11T10:02:18.149Z,19.00
2018-07-11T10:04:46.721Z,19.10
2018-07-11T10:07:15.048Z,19.20
2018-07-11T10:09:44.056Z,19.20
2018-07-11T10:12:12.447Z,19.30
2018-07-11T10:14:40.738Z,19.40
2018-07-11T10:17:09.007Z,19.40
2018-07-11T10:19:37.303Z,19.40
2018-07-11T10:22:14.106Z,19.40
2018-07-11T10:24:43.086Z,19.60
2018-07-11T10:27:11.387Z,19.50
2018-07-11T10:29:39.700Z,19.50
2018-07-11T10:32:07.975Z,19.40
2018-07-11T10:34:36.264Z,19.40
2018-07-11T10:37:05.558Z,19.50
2018-07-11T10:39:34.343Z,19.70
2018-07-11T10:42:02.669Z,19.70
2018-07-11T10:44:30.967Z,19.70
2018-07-11T10:47:04.618Z,19.60
2018-07-11T10:49:32.916Z,19.50
2018-07-11T10:52:01.199Z,19.50
2018-07-11T10:54:30.134Z,19.50
2018-07-11T10:56:58.501Z,19.60
2018-07-11T10:59:27.158Z,19.60
2018-07-11T11:01:55.434Z,19.60
2018-07-11T11:04:24.075Z,19.60
2018-07-11T11:06:52.349Z,19.60
2018-07-11T11:09:20.659Z,19.70
2018-07-11T11:11:48.967Z,19.70
2018-07-11T11:14:17.420Z,19.90
2018-07-11T11:16:46.091Z,20.10
2018-07-11T11:19:21.412Z,20.30
2018-07-11T11:21:49.794Z,20.60
2018-07-11T11:24:18.205Z,20.80
2018-07-11T11:26:46.494Z,21.20
2018-07-11T11:29:14.950Z,21.50
2018-07-11T11:31:43.351Z,21.50
2018-07-11T11:34:11.701Z,21.80
2018-07-11T11:39:12.870Z,22.00
2018-07-11T11:41:41.275Z,21.90
2018-07-11T11:44:09.472Z,21.60
2018-07-11T11:46:37.753Z,21.50
2018-07-11T11:49:06.095Z,21.50
2018-07-11T11:51:34.386Z,21.50
2018-07-11T11:54:02.713Z,21.50
2018-07-11T11:56:30.986Z,21.60
2018-07-11T11:58:59.253Z,21.50
2018-07-11T12:01:27.542Z,21.50
2018-07-11T12:03:55.851Z,21.60
2018-07-11T12:06:24.155Z,21.70
2018-07-11T12:08:52.524Z,21.70
2018-07-11T12:11:21.071Z,21.70
2018-07-11T12:13:49.403Z,21.50
2018-07-11T12:16:17.707Z,21.40
2018-07-11T12:18:45.969Z,21.40
2018-07-11T12:21:14.424Z,21.40
2018-07-11T12:23:42.622Z,21.40
2018-07-11T12:26:11.396Z,21.60
2018-07-11T12:31:07.759Z,22.00
2018-07-11T12:33:36.185Z,22.40
